Time;durP1;ratioP1;P1;durP2;ratioP2;P2;SDS_P1;SDS_P2;PMS_P1;PMS_P2;Temp;Humidity;BMP_temperature;BMP_pressure;BME280_temperature;BME280_humidity;BME280_pressure;Samples;Min_cycle;Max_cycle;Signal;HPM_P1;HPM_P2
2021/01/07 00:01:15;;;;;;;12.60;5.13;;;1.00;99.90;;;-0.89;88.98;101130.34;5039511;28;20048;-40
2021/01/07 00:03:42;;;;;;;12.38;5.38;;;1.00;99.90;;;-0.89;89.46;101125.84;5072233;28;20383;-40
2021/01/07 00:06:12;;;;;;;11.73;5.30;;;1.00;99.90;;;-0.90;89.66;101123.28;5022819;28;20052;-40
2021/01/07 00:08:41;;;;;;;12.48;5.03;;;1.00;99.90;;;-0.85;89.54;101125.59;5072035;28;20079;-40
2021/01/07 00:11:11;;;;;;;11.70;4.78;;;1.10;99.90;;;-0.87;89.48;101118.53;5055454;28;20048;-40
2021/01/07 00:13:39;;;;;;;11.13;4.75;;;1.10;99.90;;;-0.88;89.81;101113.28;5071723;28;20044;-40
2021/01/07 00:16:06;;;;;;;10.40;5.35;;;1.10;99.90;;;-0.88;89.93;101124.00;5055440;28;20134;-40
2021/01/07 00:18:33;;;;;;;11.82;5.20;;;1.00;99.90;;;-0.88;89.61;101116.84;5022801;28;20053;-40
2021/01/07 00:21:02;;;;;;;12.50;5.10;;;1.10;99.90;;;-0.84;90.12;101117.41;5038957;28;20068;-40
2021/01/07 00:23:29;;;;;;;14.80;6.07;;;1.10;99.90;;;-0.81;90.46;101108.28;5071395;28;20044;-40
2021/01/07 00:25:56;;;;;;;11.55;5.30;;;1.10;99.90;;;-0.76;90.57;101116.75;5022253;28;20132;-40
2021/01/07 00:28:24;;;;;;;12.00;5.70;;;1.10;99.90;;;-0.70;90.08;101112.72;5039128;28;20466;-40
2021/01/07 00:30:52;;;;;;;13.93;5.93;;;1.20;99.90;;;-0.70;90.40;101110.03;5071532;28;20419;-41
2021/01/07 00:33:20;;;;;;;12.60;5.70;;;1.20;99.90;;;-0.65;89.93;101107.81;5038568;28;20067;-40
2021/01/07 00:35:47;;;;;;;11.77;5.22;;;1.20;99.90;;;-0.60;89.90;101105.56;5038515;28;20442;-40
2021/01/07 00:38:15;;;;;;;9.85;5.40;;;1.20;99.90;;;-0.59;90.53;101108.13;5021908;28;20583;-40
2021/01/07 00:40:43;;;;;;;12.98;5.97;;;1.30;99.90;;;-0.60;90.05;101103.75;5038271;28;20048;-40
2021/01/07 00:43:11;;;;;;;;;;;1.30;99.90;;;-0.54;90.68;101107.72;5055884;28;20041;-40
2021/01/07 00:45:38;;;;;;;11.48;5.22;;;1.30;99.90;;;-0.57;90.45;101102.63;5021837;28;20341;-40
2021/01/07 00:48:07;;;;;;;11.53;5.83;;;1.30;99.90;;;-0.57;90.16;101105.28;5022047;28;20043;-40
2021/01/07 00:50:35;;;;;;;11.80;6.00;;;1.30;99.90;;;-0.55;90.66;101108.69;5054665;28;20458;-40
2021/01/07 00:53:03;;;;;;;10.93;5.50;;;1.40;99.90;;;-0.51;90.60;101098.56;5039074;28;20127;-40
2021/01/07 00:55:30;;;;;;;13.90;6.30;;;1.40;99.90;;;-0.51;90.74;101093.22;5038218;28;20124;-40
2021/01/07 00:58:07;;;;;;;13.27;5.80;;;1.40;99.90;;;-0.52;90.26;101092.38;5055523;28;20048;-40
2021/01/07 01:00:36;;;;;;;12.38;5.28;;;1.40;99.90;;;-0.49;90.83;101097.47;5038531;28;20538;-40
2021/01/07 01:03:04;;;;;;;12.68;5.68;;;1.40;99.90;;;-0.47;90.41;101095.50;5087683;28;20055;-40
2021/01/07 01:05:32;;;;;;;11.90;5.13;;;1.40;99.90;;;-0.45;90.29;101089.97;5037756;28;20046;-40
2021/01/07 01:08:00;;;;;;;10.57;5.07;;;1.40;99.90;;;-0.44;90.80;101087.19;5037822;28;20510;-40
2021/01/07 01:10:27;;;;;;;12.25;5.30;;;1.50;99.90;;;-0.45;90.42;101085.50;5038050;28;20043;-40
2021/01/07 01:12:55;;;;;;;11.32;5.53;;;1.50;99.90;;;-0.49;90.58;101078.69;5004851;28;20041;-40
2021/01/07 01:15:22;;;;;;;12.82;5.47;;;1.40;99.90;;;-0.45;90.53;101087.31;5054024;28;20048;-40
2021/01/07 01:17:49;;;;;;;15.87;5.50;;;1.40;99.90;;;-0.45;90.85;101085.50;5071130;28;20618;-40
2021/01/07 01:20:17;;;;;;;12.65;5.38;;;1.40;99.90;;;-0.47;90.32;101078.53;5037809;28;20454;-40
2021/01/07 01:22:44;;;;;;;11.93;5.68;;;1.50;99.90;;;-0.41;90.38;101083.38;5021552;28;20072;-40
2021/01/07 01:25:14;;;;;;;14.05;5.50;;;1.40;99.90;;;-0.33;90.66;101088.06;5053786;28;20085;-40
2021/01/07 01:27:44;;;;;;;13.73;5.57;;;1.50;99.90;;;-0.30;89.95;101090.47;5070561;28;20455;-40
2021/01/07 01:30:14;;;;;;;14.18;5.68;;;1.50;99.90;;;-0.31;89.95;101086.97;5070412;28;20102;-40
2021/01/07 01:32:44;;;;;;;12.93;5.70;;;1.60;99.90;;;-0.36;90.12;101078.47;5037464;28;20040;-40
2021/01/07 01:35:14;;;;;;;13.48;5.75;;;1.50;99.90;;;-0.38;90.43;101083.13;5037071;28;20048;-40
2021/01/07 01:37:44;;;;;;;13.48;5.70;;;1.50;99.90;;;-0.39;90.65;101083.25;5037711;28;20098;-40
2021/01/07 01:40:14;;;;;;;14.60;6.05;;;1.50;99.90;;;-0.39;90.58;101086.78;5053572;28;20079;-40
2021/01/07 01:42:42;;;;;;;11.70;5.50;;;1.50;99.90;;;-0.38;90.48;101076.91;5070366;28;20132;-40
2021/01/07 01:45:10;;;;;;;12.52;5.50;;;1.50;99.90;;;-0.39;90.28;101088.59;5004474;28;20070;-40
2021/01/07 01:47:37;;;;;;;12.07;5.50;;;1.50;99.90;;;-0.38;90.55;101082.25;5070403;28;20132;-40
2021/01/07 01:50:07;;;;;;;12.30;5.88;;;1.50;99.90;;;-0.30;90.01;101087.78;5020155;28;20032;-40
2021/01/07 01:52:37;;;;;;;13.95;6.45;;;1.50;99.90;;;-0.34;89.93;101083.69;5053558;28;20041;-40
2021/01/07 01:55:06;;;;;;;13.50;5.97;;;1.60;99.90;;;-0.33;90.05;101080.03;5053555;28;20040;-40
2021/01/07 01:57:35;;;;;;;12.88;5.65;;;1.60;99.90;;;-0.31;89.92;101078.03;5054007;28;20052;-40
2021/01/07 02:00:07;;;;;;;15.10;6.03;;;1.60;99.90;;;-0.31;90.47;101088.78;5053459;28;20067;-40
2021/01/07 02:02:34;;;;;;;13.13;5.85;;;1.50;99.90;;;-0.34;90.44;101079.19;5053546;28;20051;-40
2021/01/07 02:05:02;;;;;;;13.60;6.03;;;1.60;99.90;;;-0.34;90.30;101089.91;5037160;28;20044;-40
2021/01/07 02:07:32;;;;;;;14.40;7.00;;;1.50;99.90;;;-0.38;90.08;101088.50;5071925;28;20048;-40
2021/01/07 02:10:03;;;;;;;17.00;7.47;;;1.50;99.90;;;-0.38;90.05;101088.50;5070461;28;20048;-40
2021/01/07 02:12:31;;;;;;;13.40;5.93;;;1.50;99.90;;;-0.39;90.43;101081.44;5069849;28;20068;-40
2021/01/07 02:14:58;;;;;;;12.77;6.32;;;1.50;99.90;;;-0.37;91.02;101090.19;5036852;28;20461;-40
2021/01/07 02:17:26;;;;;;;16.23;7.43;;;1.50;99.90;;;-0.29;90.29;101086.81;5037490;28;20384;-40
2021/01/07 02:19:59;;;;;;;16.08;7.43;;;1.60;99.90;;;-0.32;90.75;101084.41;5037059;28;20033;-40
2021/01/07 02:22:26;;;;;;;17.90;7.03;;;1.60;99.90;;;-0.32;90.40;101077.22;5069964;28;20511;-40
2021/01/07 02:24:54;;;;;;;19.02;7.43;;;1.60;99.90;;;-0.32;90.20;101082.56;5020402;28;20124;-40
2021/01/07 02:27:21;;;;;;;18.50;8.20;;;1.60;99.90;;;-0.26;90.50;101081.19;5020694;28;20101;-40
2021/01/07 02:29:49;;;;;;;18.48;8.13;;;1.60;99.90;;;-0.28;90.73;101079.63;5004557;28;20469;-40
2021/01/07 02:32:16;;;;;;;16.27;8.27;;;1.60;99.90;;;-0.27;90.36;101081.31;5020885;28;20045;-40
2021/01/07 02:34:44;;;;;;;19.30;8.27;;;1.60;99.90;;;-0.27;90.35;101076.78;5053260;28;20045;-40
2021/01/07 02:37:11;;;;;;;18.60;8.55;;;1.60;99.90;;;-0.24;90.32;101079.22;5020581;28;20537;-41
2021/01/07 02:39:39;;;;;;;20.13;8.40;;;1.60;99.90;;;-0.24;89.99;101081.91;5070021;28;20045;-40
2021/01/07 02:42:06;;;;;;;21.15;9.02;;;1.60;99.90;;;-0.23;89.83;101078.25;5036783;28;20082;-40
2021/01/07 02:44:34;;;;;;;19.38;8.32;;;1.60;99.90;;;-0.22;89.65;101087.13;5020629;28;20037;-40
2021/01/07 02:47:05;;;;;;;19.50;8.65;;;1.60;99.90;;;-0.24;90.02;101084.59;5037946;28;20041;-40
2021/01/07 02:49:32;;;;;;;16.20;7.15;;;1.60;99.90;;;-0.23;89.75;101086.28;5036922;28;20048;-40
2021/01/07 02:52:00;;;;;;;20.25;8.95;;;1.60;99.90;;;-0.20;90.13;101079.78;5053440;28;20094;-40
2021/01/07 02:54:29;;;;;;;18.30;8.52;;;1.70;99.90;;;-0.23;90.00;101080.06;5020310;28;20044;-40
2021/01/07 02:56:56;;;;;;;17.00;8.77;;;1.60;99.90;;;-0.17;90.05;101079.50;5020857;28;20049;-40
2021/01/07 02:59:24;;;;;;;20.30;8.43;;;1.60;99.90;;;-0.15;89.84;101075.72;5020603;28;20054;-40
2021/01/07 03:01:51;;;;;;;23.93;9.07;;;1.70;99.90;;;-0.17;89.69;101077.69;5021575;28;20044;-40
2021/01/07 03:04:19;;;;;;;23.03;8.73;;;1.70;99.90;;;-0.21;90.04;101078.97;5056486;28;20506;-40
2021/01/07 03:06:47;;;;;;;20.75;9.13;;;1.70;99.90;;;-0.16;90.03;101067.78;5040814;28;20064;-40
2021/01/07 03:09:15;;;;;;;20.40;8.90;;;1.70;99.90;;;-0.15;89.74;101056.09;5040482;28;20040;-40
2021/01/07 03:11:43;;;;;;;21.90;8.30;;;1.70;99.90;;;-0.19;89.87;101062.72;5007266;28;20048;-40
2021/01/07 03:14:10;;;;;;;22.08;9.38;;;1.70;99.90;;;-0.12;89.53;101065.69;5040103;28;20036;-40
2021/01/07 03:16:37;;;;;;;21.00;9.40;;;1.70;99.90;;;-0.21;89.94;101048.59;5023961;28;20052;-40
2021/01/07 03:19:05;;;;;;;19.30;8.90;;;1.70;99.90;;;-0.11;89.76;101051.31;5023636;28;20044;-40
2021/01/07 03:21:32;;;;;;;21.88;9.63;;;1.70;99.90;;;-0.12;89.41;101052.28;5023660;28;20442;-40
2021/01/07 03:24:00;;;;;;;21.37;9.17;;;1.70;99.90;;;-0.10;89.23;101050.31;5023602;28;20048;-40
2021/01/07 03:26:27;;;;;;;20.30;9.00;;;1.70;99.90;;;-0.06;89.33;101049.91;5023379;28;20406;-40
2021/01/07 03:28:54;;;;;;;20.27;9.00;;;1.80;99.90;;;-0.05;89.75;101050.75;5023741;28;20113;-40
2021/01/07 03:31:22;;;;;;;;;;;1.80;99.90;;;-0.07;89.46;101044.69;5041022;28;20037;-40
2021/01/07 03:33:50;;;;;;;19.33;8.55;;;1.80;99.90;;;-0.11;89.70;101044.13;5039551;28;19989;-40
2021/01/07 03:36:18;;;;;;;19.75;8.90;;;1.80;99.90;;;-0.09;89.57;101046.66;5039787;28;20542;-40
2021/01/07 03:38:45;;;;;;;19.20;9.25;;;1.80;99.90;;;-0.04;89.24;101041.72;5056481;28;20055;-40
2021/01/07 03:41:13;;;;;;;20.40;8.90;;;1.80;99.90;;;-0.06;89.37;101036.50;5056682;28;20445;-40
2021/01/07 03:43:40;;;;;;;22.70;9.30;;;1.80;99.90;;;-0.10;89.39;101031.53;5023211;28;20131;-40
2021/01/07 03:46:08;;;;;;;23.88;9.95;;;1.80;99.90;;;-0.03;89.56;101027.31;5023365;28;20557;-40
2021/01/07 03:48:35;;;;;;;21.03;9.87;;;1.80;99.90;;;-0.01;89.58;101030.72;5023105;28;20044;-40
2021/01/07 03:51:03;;;;;;;20.90;9.98;;;1.80;99.90;;;-0.01;89.26;101034.25;5022784;28;21057;-40
2021/01/07 03:53:31;;;;;;;18.38;8.60;;;1.80;99.90;;;0.01;89.13;101028.75;5039146;28;20046;-40
2021/01/07 03:55:58;;;;;;;22.05;10.18;;;1.80;99.90;;;-0.01;89.07;101033.38;5039409;28;20040;-40
2021/01/07 03:58:26;;;;;;;20.50;10.27;;;1.90;99.90;;;-0.04;89.38;101031.84;5039508;28;20074;-40
2021/01/07 04:00:53;;;;;;;21.70;9.43;;;1.80;99.90;;;-0.05;89.09;101023.94;5039249;28;20091;-40
2021/01/07 04:03:21;;;;;;;20.67;9.97;;;1.80;99.90;;;-0.02;89.47;101029.00;5022672;28;20052;-40
2021/01/07 04:05:48;;;;;;;22.35;10.23;;;1.80;99.90;;;-0.01;89.16;101031.56;5039069;28;20119;-40
2021/01/07 04:08:15;;;;;;;22.60;10.23;;;1.80;99.90;;;-0.06;89.30;101022.22;5055633;28;20473;-40
2021/01/07 04:10:42;;;;;;;20.50;9.52;;;1.80;99.90;;;-0.02;89.36;101026.31;5039052;28;20175;-40
2021/01/07 04:13:10;;;;;;;25.48;9.82;;;1.80;99.90;;;-0.04;89.21;101021.13;5070837;28;20098;-40
2021/01/07 04:15:37;;;;;;;20.63;9.82;;;1.80;99.90;;;-0.01;89.13;101025.34;5022627;28;20120;-40
2021/01/07 04:18:05;;;;;;;19.80;8.98;;;1.80;99.90;;;-0.01;89.43;101018.16;5023018;28;20094;-40
2021/01/07 04:20:32;;;;;;;21.23;9.33;;;1.90;99.90;;;-0.02;89.22;101026.31;5055383;28;20396;-40
2021/01/07 04:22:59;;;;;;;24.23;10.35;;;1.80;99.90;;;0.01;89.74;101020.72;5006290;28;20098;-40
2021/01/07 04:25:27;;;;;;;20.65;10.38;;;1.80;99.90;;;-0.01;89.69;101020.84;5038645;28;20546;-40
2021/01/07 04:27:54;;;;;;;19.70;9.68;;;1.80;99.90;;;-0.03;89.26;101024.63;5072042;28;20044;-40
2021/01/07 04:30:21;;;;;;;22.50;10.07;;;1.80;99.90;;;0.00;89.64;101027.06;5038658;28;20075;-40
2021/01/07 04:32:49;;;;;;;24.70;10.70;;;1.80;99.90;;;-0.01;89.48;101019.97;5038823;28;20048;-40
2021/01/07 04:35:16;;;;;;;24.55;10.68;;;1.80;99.90;;;0.00;89.38;101021.69;5023308;28;20766;-40
2021/01/07 04:37:43;;;;;;;20.93;9.67;;;1.80;99.90;;;0.02;89.46;101017.03;5055475;28;20056;-40
2021/01/07 04:40:13;;;;;;;20.73;10.35;;;1.90;99.90;;;0.00;89.50;101016.34;5038579;28;20068;-40
2021/01/07 04:42:41;;;;;;;20.90;9.95;;;1.90;99.90;;;-0.01;89.82;101007.44;5088208;28;20580;-40
2021/01/07 04:45:09;;;;;;;;;;;1.80;99.90;;;0.06;89.74;101014.91;5039010;28;20051;-40
2021/01/07 04:47:37;;;;;;;20.45;9.75;;;1.90;99.90;;;0.11;89.62;101013.50;5054858;28;20363;-40
2021/01/07 04:50:05;;;;;;;22.95;10.25;;;1.90;99.90;;;0.08;89.63;101011.13;5038122;28;20048;-40
2021/01/07 04:52:34;;;;;;;22.20;10.52;;;1.90;99.90;;;0.06;89.58;101007.72;5071126;28;20052;-40
2021/01/07 04:55:02;;;;;;;21.23;10.23;;;1.90;99.90;;;-0.01;89.78;101003.88;5054564;28;20106;-40
2021/01/07 04:57:29;;;;;;;;;;;1.90;99.90;;;-0.05;90.32;100999.78;5055423;28;20076;-40
2021/01/07 04:59:56;;;;;;;19.95;9.57;;;1.80;99.90;;;-0.01;89.87;101003.88;5054612;28;20448;-40
2021/01/07 05:02:25;;;;;;;22.77;10.38;;;1.80;99.90;;;0.05;90.60;101005.16;5038132;28;20525;-40
2021/01/07 05:04:53;;;;;;;;;;;1.90;99.90;;;0.04;90.14;100998.97;5071324;28;20098;-40
2021/01/07 05:07:22;;;;;;;20.95;10.02;;;1.90;99.90;;;0.00;89.99;101000.25;5054323;28;19974;-40
2021/01/07 05:10:02;;;;;;;21.58;10.38;;;1.80;99.90;;;-0.01;90.57;100998.50;5070946;28;20135;-40
2021/01/07 05:12:29;;;;;;;24.73;10.43;;;1.80;99.90;;;0.02;90.69;101000.94;5054447;28;20075;-40
2021/01/07 05:14:56;;;;;;;25.35;11.80;;;1.80;99.90;;;0.02;90.65;100997.41;5054182;28;20044;-40
2021/01/07 05:17:23;;;;;;;22.80;10.05;;;1.90;99.90;;;0.01;90.94;100985.84;5037920;28;20052;-40
2021/01/07 05:19:51;;;;;;;22.50;10.77;;;1.90;99.90;;;-0.04;90.82;100983.56;5070977;28;20041;-40
2021/01/07 05:22:18;;;;;;;25.20;11.35;;;1.90;99.90;;;0.04;90.76;100987.38;5037691;28;20052;-40
2021/01/07 05:24:51;;;;;;;22.40;10.95;;;1.90;99.90;;;0.04;90.80;100976.63;5037494;28;20090;-40
2021/01/07 05:27:23;;;;;;;24.27;11.60;;;1.90;99.90;;;0.03;91.36;100973.13;5055496;28;20519;-40
2021/01/07 05:29:50;;;;;;;24.63;11.35;;;1.90;99.90;;;0.07;91.02;100976.34;5037709;28;20041;-40
2021/01/07 05:32:36;;;;;;;24.57;11.10;;;1.90;99.90;;;0.11;91.20;100978.63;5037914;28;20579;-40
2021/01/07 05:35:10;;;;;;;23.60;11.75;;;1.90;99.90;;;0.13;91.36;100968.59;5071571;28;20040;-40
2021/01/07 05:37:39;;;;;;;27.42;11.75;;;1.90;99.90;;;0.14;90.85;100974.84;5087241;28;20064;-40
2021/01/07 05:40:09;;;;;;;28.90;12.00;;;2.00;99.90;;;0.17;91.45;100965.63;5070411;28;20055;-40
2021/01/07 05:42:41;;;;;;;27.52;12.25;;;2.00;99.90;;;0.17;90.72;100976.38;5070409;28;20127;-40
2021/01/07 05:45:13;;;;;;;28.95;12.02;;;2.00;99.90;;;0.18;90.73;100965.50;5070058;28;20094;-40
2021/01/07 05:47:48;;;;;;;31.50;12.93;;;2.00;99.90;;;0.25;90.73;100976.50;5070753;28;20123;-40
2021/01/07 05:50:20;;;;;;;29.45;12.38;;;2.00;99.90;;;0.27;90.46;100974.56;5070281;28;20072;-40
2021/01/07 05:52:49;;;;;;;32.53;12.18;;;2.10;99.90;;;0.31;90.69;100965.22;5070837;28;20048;-40
2021/01/07 05:55:19;;;;;;;29.73;12.23;;;2.10;99.90;;;0.31;90.48;100970.59;5070156;28;20068;-40
2021/01/07 05:57:47;;;;;;;28.77;12.07;;;2.10;99.90;;;0.28;90.67;100966.34;5071834;28;20047;-40
2021/01/07 06:00:17;;;;;;;;;;;2.10;99.90;;;0.25;90.72;100966.63;5070870;28;20150;-40
2021/01/07 06:02:45;;;;;;;29.17;11.55;;;2.10;99.90;;;0.21;90.68;100965.22;5053736;28;19920;-40
2021/01/07 06:05:15;;;;;;;31.48;13.20;;;2.10;99.90;;;0.26;90.67;100962.97;5053542;28;20048;-40
2021/01/07 06:07:43;;;;;;;25.40;11.88;;;2.10;99.90;;;0.22;90.82;100971.41;5086902;28;20487;-40
2021/01/07 06:10:15;;;;;;;32.33;12.77;;;2.10;99.90;;;0.23;91.05;100965.94;5070209;28;20044;-40
2021/01/07 06:12:42;;;;;;;30.60;12.13;;;2.00;99.90;;;0.23;90.71;100962.38;5071263;28;20049;-40
2021/01/07 06:15:15;;;;;;;26.33;11.52;;;2.10;99.90;;;0.26;90.85;100972.81;5053301;28;20037;-40
2021/01/07 06:17:43;;;;;;;28.67;12.30;;;2.10;99.90;;;0.26;90.46;100962.09;5053744;28;20044;-40
2021/01/07 06:20:22;;;;;;;23.30;10.57;;;2.10;99.90;;;0.21;90.85;100964.34;5069938;28;20499;-40
2021/01/07 06:22:52;;;;;;;27.90;12.52;;;2.10;99.90;;;0.17;90.90;100973.69;5086938;28;20091;-40
2021/01/07 06:25:23;;;;;;;25.00;10.95;;;2.00;99.90;;;0.14;91.14;100970.28;5069629;28;20097;-40
2021/01/07 06:27:53;;;;;;;27.48;11.68;;;2.00;99.90;;;0.16;91.01;100969.31;5086982;28;20083;-40
2021/01/07 06:30:21;;;;;;;28.50;11.57;;;2.00;99.90;;;0.12;91.21;100968.72;5053154;28;20036;-40
2021/01/07 06:33:04;;;;;;;33.17;12.32;;;2.00;99.90;;;0.10;91.33;100976.94;5053669;28;20050;-40
2021/01/07 06:35:42;;;;;;;26.25;11.82;;;1.90;99.90;;;0.06;91.38;100977.34;5086531;28;20521;-40
2021/01/07 06:38:29;;;;;;;27.38;11.75;;;1.90;99.90;;;-0.03;91.40;100963.78;5056780;28;20048;-40
2021/01/07 06:41:00;;;;;;;24.60;11.40;;;1.90;99.90;;;0.07;91.03;100977.22;5073826;28;20041;-40
2021/01/07 06:43:29;;;;;;;28.38;11.85;;;1.90;99.90;;;0.12;91.21;100984.84;5073525;28;20040;-40
2021/01/07 06:45:57;;;;;;;23.10;10.65;;;1.90;99.90;;;0.08;91.14;100983.41;5057301;28;20041;-40
2021/01/07 06:48:32;;;;;;;29.25;12.25;;;1.90;99.90;;;0.07;91.13;100977.22;5073511;28;20037;-40
2021/01/07 06:51:03;;;;;;;25.77;11.65;;;1.90;99.90;;;0.01;91.08;100975.09;5057109;28;20414;-40
2021/01/07 06:53:37;;;;;;;28.40;12.18;;;1.90;99.90;;;-0.02;91.58;100978.03;5073417;28;20090;-40
2021/01/07 06:56:16;;;;;;;23.67;11.90;;;1.90;99.90;;;-0.04;91.75;100977.34;5073479;28;20064;-40
2021/01/07 06:58:45;;;;;;;24.23;11.85;;;1.80;99.90;;;-0.05;91.61;100971.13;5073321;28;20071;-40
2021/01/07 07:01:16;;;;;;;29.02;10.98;;;1.80;99.90;;;-0.04;92.12;100974.66;5073325;28;20041;-40
2021/01/07 07:03:49;;;;;;;22.58;10.60;;;1.80;99.90;;;-0.03;91.89;100976.34;5090033;28;20058;-40
2021/01/07 07:06:25;;;;;;;24.17;11.50;;;1.80;99.90;;;-0.06;92.20;100976.63;5073274;28;20564;-40
2021/01/07 07:08:53;;;;;;;26.08;10.68;;;1.80;99.90;;;-0.10;92.00;100980.56;5073618;28;20066;-40
2021/01/07 07:11:33;;;;;;;26.00;11.27;;;1.80;99.90;;;-0.13;91.45;100978.19;5072688;28;20045;-40
2021/01/07 07:14:07;;;;;;;23.25;10.23;;;1.70;99.90;;;-0.21;91.62;100976.19;5072907;28;20044;-40
2021/01/07 07:16:37;;;;;;;21.77;9.55;;;1.70;99.90;;;-0.23;92.19;100978.16;5074351;28;20048;-40
2021/01/07 07:19:07;;;;;;;25.02;9.68;;;1.70;99.90;;;-0.23;91.67;100980.84;5073068;28;20048;-40
2021/01/07 07:21:35;;;;;;;20.65;8.88;;;1.70;99.90;;;-0.22;91.98;100980.72;5073006;28;20044;-40
2021/01/07 07:24:13;;;;;;;;;;;1.70;99.90;;;-0.25;91.51;100974.75;5041116;28;20044;-40
2021/01/07 07:26:43;;;;;;;21.10;8.43;;;1.70;99.90;;;-0.23;91.82;100984.38;5072841;28;19983;-40
2021/01/07 07:29:13;;;;;;;19.98;8.95;;;1.70;99.90;;;-0.22;92.02;100977.16;5056509;28;20471;-40
2021/01/07 07:31:45;;;;;;;19.20;8.70;;;1.70;99.90;;;-0.20;91.78;100985.91;5056127;28;20045;-40
2021/01/07 07:34:16;;;;;;;19.92;8.68;;;1.70;99.90;;;-0.20;91.78;100986.78;5072739;28;20044;-40
2021/01/07 07:36:44;;;;;;;18.00;8.65;;;1.70;99.90;;;-0.18;91.81;100990.16;5074392;28;20044;-40
2021/01/07 07:39:12;;;;;;;20.08;8.45;;;1.70;99.90;;;-0.16;91.85;100993.56;5072646;28;20507;-40
2021/01/07 07:41:43;;;;;;;19.73;9.20;;;1.70;99.90;;;-0.15;92.07;100997.94;5072684;28;20052;-40
2021/01/07 07:44:14;;;;;;;21.50;9.07;;;1.70;99.90;;;-0.12;92.30;100996.81;5088988;28;20119;-40
2021/01/07 07:46:43;;;;;;;20.42;8.85;;;1.70;99.90;;;-0.10;92.48;101005.59;5089471;28;20051;-40
2021/01/07 07:49:11;;;;;;;18.08;8.55;;;1.70;99.90;;;-0.08;91.92;100998.25;5072498;28;20584;-40
2021/01/07 07:51:39;;;;;;;20.15;9.23;;;1.80;99.90;;;-0.06;92.48;100998.94;5072365;28;20040;-40
2021/01/07 07:54:10;;;;;;;;;;;1.80;99.90;;;-0.03;91.85;101005.84;5072836;28;20518;-40
2021/01/07 07:56:38;;;;;;;21.17;8.45;;;1.80;99.90;;;-0.02;92.11;101007.56;5072302;28;19920;-40
2021/01/07 07:59:11;;;;;;;21.17;9.25;;;1.80;99.90;;;-0.01;91.65;101006.56;5089138;28;20467;-40
2021/01/07 08:01:49;;;;;;;21.70;9.85;;;1.80;99.90;;;-0.03;91.79;101006.72;5072160;28;20408;-40
2021/01/07 08:04:23;;;;;;;22.60;9.25;;;1.80;99.90;;;-0.03;91.95;101003.16;5073385;28;20045;-40
2021/01/07 08:06:51;;;;;;;20.33;8.90;;;1.80;99.90;;;-0.03;91.89;101009.41;5072145;28;20119;-40
2021/01/07 08:09:21;;;;;;;22.52;9.02;;;1.80;99.90;;;-0.03;91.17;101006.72;5072114;28;20059;-40
2021/01/07 08:11:51;;;;;;;23.83;9.55;;;1.80;99.90;;;-0.04;91.38;101014.88;5071588;28;20094;-39
2021/01/07 08:14:22;;;;;;;19.33;9.07;;;1.80;99.90;;;-0.08;91.35;101014.34;5073185;28;20045;-39
2021/01/07 08:17:02;;;;;;;21.48;9.25;;;1.80;99.90;;;-0.10;91.65;101010.09;5073274;28;20044;-40
2021/01/07 08:19:33;;;;;;;20.13;9.10;;;1.80;99.90;;;-0.06;91.29;101023.09;5071891;28;20495;-40
2021/01/07 08:22:03;;;;;;;21.85;8.95;;;1.80;99.90;;;-0.05;91.49;101014.06;5071750;28;20076;-40
2021/01/07 08:24:32;;;;;;;22.30;9.25;;;1.80;99.90;;;-0.08;91.35;101018.84;5072204;28;20052;-40
2021/01/07 08:27:05;;;;;;;23.20;10.03;;;1.80;99.90;;;-0.08;91.74;101018.84;5088489;28;20033;-40
2021/01/07 08:29:38;;;;;;;20.52;8.65;;;1.80;99.90;;;-0.02;91.85;101015.59;5072864;28;20105;-39
2021/01/07 08:32:11;;;;;;;18.95;8.90;;;1.80;99.90;;;-0.06;91.34;101015.03;5073209;28;20052;-39
2021/01/07 08:34:39;;;;;;;22.65;9.77;;;1.80;99.90;;;-0.08;91.53;101014.34;5088220;28;20040;-39
2021/01/07 08:37:11;;;;;;;21.15;10.00;;;1.80;99.90;;;-0.07;91.35;101018.72;5071823;28;20041;-40
2021/01/07 08:39:41;;;;;;;21.13;8.90;;;1.80;99.90;;;-0.03;91.79;101016.59;5055163;28;20064;-40
2021/01/07 08:42:09;;;;;;;22.52;10.13;;;1.80;99.90;;;0.11;91.88;101018.03;5072576;28;20092;-40
2021/01/07 08:44:37;;;;;;;21.75;9.02;;;1.90;99.90;;;0.13;91.91;101011.53;5071177;28;20515;-39
2021/01/07 08:47:23;;;;;;;22.40;9.48;;;1.90;99.90;;;0.19;91.34;101011.97;5055008;28;20498;-40
2021/01/07 08:50:10;;;;;;;22.30;9.95;;;2.00;99.90;;;0.23;91.12;101010.69;5072582;28;20048;-40
2021/01/07 08:52:56;;;;;;;23.33;10.23;;;2.00;99.90;;;0.21;91.67;101009.97;5054792;28;20071;-40
2021/01/07 08:55:45;;;;;;;23.20;10.70;;;2.00;99.90;;;0.28;90.40;101008.47;5071486;28;20091;-40
2021/01/07 08:58:24;;;;;;;22.33;10.38;;;2.10;99.90;;;0.27;90.48;101012.13;5071214;28;20041;-40
2021/01/07 09:00:54;;;;;;;22.35;9.55;;;2.00;99.90;;;0.37;91.22;101010.28;5071879;28;20044;-40
2021/01/07 09:03:21;;;;;;;21.48;9.65;;;2.10;99.90;;;0.43;90.73;101011.56;5070825;28;20051;-40
2021/01/07 09:06:06;;;;;;;23.05;10.25;;;2.20;99.90;;;0.46;90.84;101011.28;5071108;28;20101;-40
2021/01/07 09:08:33;;;;;;;19.48;9.07;;;2.20;99.90;;;0.52;90.47;101020.59;5073730;28;20056;-40
2021/01/07 09:11:08;;;;;;;20.88;10.13;;;2.30;99.90;;;0.52;90.55;101016.06;5070494;28;20041;-40
2021/01/07 09:13:35;;;;;;;22.27;9.60;;;2.30;99.90;;;0.56;90.19;101016.66;5070638;28;20065;-40
2021/01/07 09:16:16;;;;;;;19.15;9.20;;;2.30;99.90;;;0.55;90.01;101012.28;5087858;28;20045;-40
2021/01/07 09:18:43;;;;;;;20.90;9.15;;;2.30;99.90;;;0.50;90.01;101015.38;5072135;28;20049;-39
2021/01/07 09:21:20;;;;;;;19.50;9.02;;;2.30;99.90;;;0.50;90.16;101019.88;5070648;28;20409;-39
2021/01/07 09:23:50;;;;;;;18.40;8.95;;;2.30;99.90;;;0.45;90.00;101014.09;5072121;28;20626;-40
2021/01/07 09:26:29;;;;;;;20.75;9.10;;;2.30;99.90;;;0.47;90.06;101018.34;5070807;28;20522;-40
2021/01/07 09:28:56;;;;;;;20.17;9.18;;;2.30;99.90;;;0.49;90.16;101012.81;5070670;28;20079;-40
2021/01/07 09:31:23;;;;;;;19.30;8.63;;;2.30;99.90;;;0.53;90.04;101014.22;5037800;28;20040;-40
2021/01/07 09:33:50;;;;;;;19.35;8.57;;;2.30;99.90;;;0.53;90.31;101006.16;5070213;28;20040;-40
2021/01/07 09:36:17;;;;;;;19.15;8.40;;;2.30;99.90;;;0.53;89.99;101009.72;5070554;28;20102;-40
2021/01/07 09:38:44;;;;;;;17.15;8.13;;;2.30;99.90;;;0.53;90.01;101007.03;5054154;28;20123;-40
2021/01/07 09:41:12;;;;;;;18.95;7.95;;;2.30;99.90;;;0.54;89.90;101013.25;5070592;28;20131;-40
2021/01/07 09:43:39;;;;;;;20.02;8.15;;;2.30;99.90;;;0.57;89.85;101011.13;5053844;28;20074;-40
2021/01/07 09:46:06;;;;;;;17.83;8.40;;;2.40;99.90;;;0.57;89.88;101007.59;5037331;28;20579;-40
2021/01/07 09:48:34;;;;;;;17.77;8.05;;;2.40;99.90;;;0.61;90.17;101008.16;5070711;28;20071;-40
2021/01/07 09:51:01;;;;;;;18.67;8.95;;;2.40;99.90;;;0.60;90.44;101001.94;5054064;28;20047;-40
2021/01/07 09:53:28;;;;;;;21.38;9.20;;;2.40;99.90;;;0.69;90.48;101009.13;5070079;28;20546;-40
2021/01/07 09:55:55;;;;;;;23.52;9.48;;;2.50;99.90;;;0.68;90.00;101007.44;5087129;28;20075;-40
2021/01/07 09:58:22;;;;;;;21.00;9.15;;;2.50;99.90;;;0.76;90.19;101008.56;5021015;28;20048;-40
2021/01/07 10:00:49;;;;;;;19.75;8.45;;;2.50;99.90;;;0.71;90.27;100999.09;5071386;28;20040;-40
2021/01/07 10:03:16;;;;;;;22.30;9.15;;;2.50;99.90;;;0.69;90.11;101005.63;5070296;28;20044;-40
2021/01/07 10:05:43;;;;;;;20.83;9.10;;;2.50;99.90;;;0.64;89.71;101003.34;5070126;28;20069;-40
2021/01/07 10:08:10;;;;;;;17.77;8.20;;;2.50;99.90;;;0.69;89.94;101011.00;5053650;28;20415;-40
2021/01/07 10:10:37;;;;;;;18.25;8.30;;;2.50;99.90;;;0.71;90.13;101006.31;5053723;28;20068;-40
2021/01/07 10:13:04;;;;;;;16.55;8.25;;;2.50;99.90;;;0.73;90.37;101008.84;5089977;28;20037;-40
2021/01/07 10:15:31;;;;;;;18.50;8.32;;;2.50;99.90;;;0.70;90.13;100997.41;5040902;28;20072;-40
2021/01/07 10:17:58;;;;;;;15.88;8.07;;;2.50;99.90;;;0.76;89.73;101006.72;5074437;28;20040;-40
2021/01/07 10:20:26;;;;;;;16.95;8.40;;;2.50;99.90;;;0.77;89.20;100996.81;5074156;28;20044;-40
2021/01/07 10:22:55;;;;;;;16.75;7.72;;;2.60;99.90;;;0.77;89.50;101002.19;5074147;28;20594;-40
2021/01/07 10:25:23;;;;;;;19.73;8.38;;;2.50;99.90;;;0.78;89.84;100999.38;5075072;28;20527;-40